createdAt,value
2022-07-26T00:01:48.227Z,19.33
2022-07-26T00:04:15.369Z,19.44
2022-07-26T00:06:42.591Z,19.51
2022-07-26T00:09:10.333Z,19.43
2022-07-26T00:11:37.691Z,19.46
2022-07-26T00:14:09.234Z,19.41
2022-07-26T00:16:38.078Z,19.27
2022-07-26T00:19:10.273Z,19.29
2022-07-26T00:21:38.554Z,19.29
2022-07-26T00:24:09.096Z,19.33
2022-07-26T00:26:36.382Z,19.26
2022-07-26T00:29:06.123Z,19.09
2022-07-26T00:31:33.751Z,19.06
2022-07-26T00:34:00.915Z,19.11
2022-07-26T00:36:28.994Z,19.11
2022-07-26T00:38:55.998Z,19.08
2022-07-26T00:41:23.132Z,19.16
2022-07-26T00:44:00.380Z,19.23
2022-07-26T00:46:28.340Z,19.06
2022-07-26T00:48:55.844Z,18.96
2022-07-26T00:51:23.657Z,18.94
2022-07-26T00:53:50.997Z,18.86
2022-07-26T00:56:18.733Z,18.74
2022-07-26T00:58:45.917Z,18.65
2022-07-26T01:01:13.307Z,18.60
2022-07-26T01:03:40.649Z,18.48
2022-07-26T01:06:08.878Z,18.45
2022-07-26T01:08:36.858Z,18.50
2022-07-26T01:11:03.781Z,18.45
2022-07-26T01:18:41.808Z,18.39
2022-07-26T01:21:13.911Z,18.33
2022-07-26T01:23:43.699Z,18.42
2022-07-26T01:26:11.877Z,18.37
2022-07-26T01:28:41.987Z,18.40
2022-07-26T01:31:09.318Z,18.41
2022-07-26T01:33:36.463Z,18.50
2022-07-26T01:36:03.777Z,18.48
2022-07-26T01:38:30.860Z,18.40
2022-07-26T01:40:57.949Z,18.43
2022-07-26T01:43:24.994Z,18.47
2022-07-26T01:45:54.985Z,18.46
2022-07-26T01:48:22.231Z,18.43
2022-07-26T01:50:49.367Z,18.47
2022-07-26T01:53:16.494Z,18.47
2022-07-26T01:55:43.624Z,18.38
2022-07-26T01:58:10.656Z,18.26
2022-07-26T02:00:37.743Z,18.29
2022-07-26T02:03:05.009Z,18.40
2022-07-26T02:05:32.219Z,18.42
2022-07-26T02:07:59.455Z,18.38
2022-07-26T02:10:47.778Z,18.28
2022-07-26T02:13:14.894Z,18.29
2022-07-26T02:15:42.529Z,18.16
2022-07-26T02:18:09.951Z,18.10
2022-07-26T02:20:37.022Z,18.09
2022-07-26T02:23:05.212Z,18.13
2022-07-26T02:25:32.934Z,18.15
2022-07-26T02:28:01.651Z,18.20
2022-07-26T02:30:29.458Z,18.04
2022-07-26T02:32:56.784Z,18.00
2022-07-26T02:35:23.905Z,17.86
2022-07-26T02:37:51.017Z,17.75
2022-07-26T02:40:19.480Z,17.79
2022-07-26T02:42:46.926Z,17.81
2022-07-26T02:45:13.970Z,17.77
2022-07-26T02:47:54.134Z,17.79
2022-07-26T02:50:25.838Z,17.79
2022-07-26T02:52:54.256Z,17.77
2022-07-26T02:55:26.733Z,17.76
2022-07-26T02:57:54.774Z,17.74
2022-07-26T03:00:27.508Z,17.76
2022-07-26T03:02:54.887Z,17.75
2022-07-26T03:05:22.601Z,17.77
2022-07-26T03:07:50.640Z,17.82
2022-07-26T03:10:17.794Z,17.75
2022-07-26T03:12:45.428Z,17.62
2022-07-26T03:15:12.851Z,17.60
2022-07-26T03:17:39.971Z,17.61
2022-07-26T03:20:08.407Z,17.59
2022-07-26T03:22:35.515Z,17.65
2022-07-26T03:25:02.615Z,17.62
2022-07-26T03:27:29.768Z,17.61
2022-07-26T03:29:56.741Z,17.58
2022-07-26T03:32:23.839Z,17.50
2022-07-26T03:34:51.336Z,17.43
2022-07-26T03:37:19.034Z,17.25
2022-07-26T03:39:46.245Z,17.12
2022-07-26T03:42:15.494Z,17.05
2022-07-26T03:44:42.627Z,17.05
2022-07-26T03:47:09.692Z,16.99
2022-07-26T03:49:36.768Z,17.01
2022-07-26T03:52:04.497Z,17.05
2022-07-26T03:54:31.800Z,17.10
2022-07-26T03:56:58.824Z,17.10
2022-07-26T03:59:25.823Z,17.20
2022-07-26T04:01:52.907Z,17.29
2022-07-26T04:04:25.171Z,17.31
2022-07-26T04:06:52.677Z,17.34
2022-07-26T04:09:20.333Z,17.39
2022-07-26T04:11:48.690Z,17.42
2022-07-26T04:14:16.569Z,17.45
2022-07-26T04:16:44.054Z,17.54
2022-07-26T04:19:11.459Z,17.47
2022-07-26T04:21:38.826Z,17.34
2022-07-26T04:24:07.019Z,17.32
2022-07-26T04:26:34.963Z,17.31
2022-07-26T04:29:02.412Z,17.41
2022-07-26T04:31:29.389Z,17.50
2022-07-26T04:34:03.711Z,17.52
2022-07-26T04:36:30.729Z,17.40
2022-07-26T04:38:57.802Z,17.40
2022-07-26T04:41:25.065Z,17.53
2022-07-26T04:43:52.099Z,17.54
2022-07-26T04:46:19.617Z,17.49
2022-07-26T04:48:46.765Z,17.46
2022-07-26T04:51:13.834Z,17.45
2022-07-26T04:53:40.897Z,17.32
2022-07-26T04:56:08.360Z,17.30
2022-07-26T04:58:35.407Z,17.33
2022-07-26T05:01:09.922Z,17.38
2022-07-26T05:03:37.926Z,17.46
2022-07-26T05:06:05.248Z,17.37
2022-07-26T05:08:32.301Z,17.40
2022-07-26T05:10:59.378Z,17.45
2022-07-26T05:13:30.324Z,17.46
2022-07-26T05:16:00.251Z,17.50
2022-07-26T05:18:31.471Z,17.59
2022-07-26T05:20:59.117Z,17.63
2022-07-26T05:23:26.140Z,17.61
2022-07-26T05:25:53.249Z,17.64
2022-07-26T05:28:20.311Z,17.82
2022-07-26T05:30:47.560Z,17.76
2022-07-26T05:33:16.707Z,17.78
2022-07-26T05:35:44.343Z,17.82
2022-07-26T05:38:11.762Z,17.77
2022-07-26T05:40:38.954Z,17.82
2022-07-26T05:43:06.057Z,17.94
2022-07-26T05:45:33.316Z,17.89
2022-07-26T05:48:00.560Z,17.74
2022-07-26T05:50:27.736Z,17.80
2022-07-26T05:52:54.745Z,18.00
2022-07-26T05:55:23.073Z,18.09
2022-07-26T05:57:50.159Z,18.07
2022-07-26T06:00:17.706Z,18.09
2022-07-26T06:02:44.840Z,18.25
2022-07-26T06:05:12.056Z,18.37
2022-07-26T06:07:39.107Z,18.46
2022-07-26T06:10:07.016Z,18.50
2022-07-26T06:12:34.045Z,18.57
2022-07-26T06:15:01.222Z,19.00
2022-07-26T06:17:30.576Z,19.22
2022-07-26T06:19:58.693Z,19.51
2022-07-26T06:22:26.638Z,19.52
2022-07-26T06:24:53.602Z,19.28
2022-07-26T06:27:20.747Z,19.32
2022-07-26T06:29:49.220Z,19.22
2022-07-26T06:32:16.425Z,19.54
2022-07-26T06:34:43.495Z,19.59
2022-07-26T06:37:10.551Z,19.70
2022-07-26T06:39:37.729Z,19.57
2022-07-26T06:42:07.686Z,19.59
2022-07-26T06:44:35.305Z,19.68
2022-07-26T06:47:02.456Z,19.77
2022-07-26T06:49:29.562Z,19.83
2022-07-26T06:51:57.978Z,20.06
2022-07-26T06:54:25.036Z,20.43
2022-07-26T06:56:52.306Z,20.35
2022-07-26T06:59:19.366Z,20.86
2022-07-26T07:01:58.066Z,20.74
2022-07-26T07:04:30.144Z,20.82
2022-07-26T07:07:02.718Z,20.70
2022-07-26T07:09:35.091Z,20.60
2022-07-26T07:14:39.677Z,20.61
2022-07-26T07:17:10.731Z,20.73
2022-07-26T07:19:41.154Z,21.17
2022-07-26T07:22:11.988Z,21.22
2022-07-26T07:24:41.683Z,21.28
2022-07-26T07:27:10.763Z,21.32
2022-07-26T07:29:41.447Z,21.18
2022-07-26T07:32:15.745Z,21.12
2022-07-26T07:34:47.911Z,21.63
2022-07-26T07:37:17.034Z,21.61
2022-07-26T07:39:44.659Z,21.26
2022-07-26T07:42:19.780Z,21.26
2022-07-26T07:44:47.862Z,21.26
2022-07-26T07:47:15.042Z,21.24
2022-07-26T07:49:42.156Z,21.28
2022-07-26T07:52:09.336Z,21.53
2022-07-26T07:54:36.387Z,21.48
2022-07-26T07:57:03.690Z,21.14
2022-07-26T07:59:31.066Z,21.14
2022-07-26T08:01:59.061Z,21.21
2022-07-26T08:04:26.329Z,21.14
2022-07-26T08:06:53.481Z,21.44
2022-07-26T08:09:20.641Z,21.75
2022-07-26T08:11:50.518Z,22.11
2022-07-26T08:14:19.738Z,22.38
2022-07-26T08:16:47.202Z,22.12
2022-07-26T08:19:15.046Z,22.10
2022-07-26T08:21:43.036Z,21.91
2022-07-26T08:24:10.979Z,21.81
2022-07-26T08:26:39.026Z,22.34
2022-07-26T08:29:06.094Z,23.21
2022-07-26T08:31:33.286Z,23.25
2022-07-26T08:34:00.415Z,23.31
2022-07-26T08:36:32.239Z,23.40
2022-07-26T08:39:00.912Z,23.54
2022-07-26T08:41:28.706Z,23.31
2022-07-26T08:43:55.747Z,22.74
2022-07-26T08:46:27.688Z,22.43
2022-07-26T08:48:58.382Z,22.21
2022-07-26T08:51:27.281Z,21.85
2022-07-26T08:54:05.888Z,22.01
2022-07-26T08:56:40.671Z,22.24
2022-07-26T08:59:21.224Z,22.56
2022-07-26T09:02:05.295Z,23.11
2022-07-26T09:04:44.707Z,23.32
2022-07-26T09:07:18.743Z,22.83
2022-07-26T09:10:12.627Z,22.40
2022-07-26T09:12:42.539Z,22.19
2022-07-26T09:15:22.736Z,22.09
2022-07-26T09:17:57.967Z,22.28
2022-07-26T09:20:32.344Z,23.01
2022-07-26T09:23:08.082Z,23.71
2022-07-26T09:25:43.210Z,23.66
2022-07-26T09:28:31.920Z,23.78
2022-07-26T09:31:04.203Z,23.55
2022-07-26T09:33:51.845Z,22.81
2022-07-26T09:36:19.589Z,22.77
2022-07-26T09:39:03.335Z,22.94
2022-07-26T09:41:37.304Z,23.38
2022-07-26T09:44:26.264Z,23.72
2022-07-26T09:46:59.511Z,24.35
2022-07-26T09:49:32.544Z,24.20
2022-07-26T09:52:22.025Z,24.17
2022-07-26T09:54:50.063Z,24.42
2022-07-26T09:57:21.784Z,24.05
2022-07-26T09:59:48.805Z,23.83
2022-07-26T10:02:15.936Z,23.67
2022-07-26T10:04:44.502Z,23.93
2022-07-26T10:07:11.668Z,24.15
2022-07-26T10:10:17.434Z,24.10
2022-07-26T10:12:46.877Z,24.03
2022-07-26T10:15:42.969Z,23.76
2022-07-26T10:18:39.035Z,23.75
2022-07-26T10:21:27.242Z,23.28
2022-07-26T10:24:03.739Z,23.12
2022-07-26T10:26:36.311Z,23.03
2022-07-26T10:29:18.339Z,23.07
2022-07-26T10:32:04.061Z,22.90
2022-07-26T10:34:39.493Z,22.71
2022-07-26T10:37:19.934Z,22.56
2022-07-26T10:39:47.085Z,22.68
2022-07-26T10:42:16.976Z,22.70
2022-07-26T10:44:47.012Z,22.82
2022-07-26T10:47:21.061Z,22.79
2022-07-26T10:50:00.161Z,22.82
2022-07-26T10:52:31.797Z,22.78
2022-07-26T10:55:07.457Z,22.87
2022-07-26T10:57:41.370Z,22.80
2022-07-26T11:00:26.544Z,22.84
2022-07-26T11:02:59.154Z,22.74
2022-07-26T11:05:34.976Z,23.28
2022-07-26T11:08:09.067Z,23.90
2022-07-26T11:10:47.530Z,24.40
2022-07-26T11:13:26.336Z,24.30
2022-07-26T11:16:04.115Z,24.03
2022-07-26T11:18:38.909Z,24.05
2022-07-26T11:21:17.590Z,23.95
2022-07-26T11:23:51.218Z,24.31
2022-07-26T11:26:25.742Z,24.14
2022-07-26T11:29:06.143Z,23.99
2022-07-26T11:31:55.811Z,24.18
2022-07-26T11:34:35.490Z,24.08
2022-07-26T11:37:06.005Z,24.00
2022-07-26T11:39:36.297Z,23.64
2022-07-26T11:42:19.925Z,23.54
2022-07-26T11:44:49.824Z,23.84
2022-07-26T11:47:25.199Z,23.93
2022-07-26T11:50:12.968Z,24.14
2022-07-26T11:52:41.888Z,24.25
2022-07-26T11:55:09.699Z,24.31
2022-07-26T11:57:36.857Z,24.47
2022-07-26T12:00:06.373Z,24.10
2022-07-26T12:02:33.559Z,23.88
2022-07-26T12:05:22.729Z,23.62
2022-07-26T12:08:02.966Z,23.43
2022-07-26T12:10:31.031Z,23.29
2022-07-26T12:13:16.442Z,23.09
2022-07-26T12:15:53.813Z,23.30
2022-07-26T12:18:34.127Z,23.20
2022-07-26T12:21:09.653Z,22.98
2022-07-26T12:23:50.891Z,22.62
2022-07-26T12:26:29.266Z,21.95
2022-07-26T12:28:58.610Z,21.44
2022-07-26T12:31:30.637Z,20.91
2022-07-26T12:33:59.531Z,20.65
2022-07-26T12:36:29.423Z,20.73
2022-07-26T12:39:00.555Z,20.79
2022-07-26T12:41:47.435Z,20.46
2022-07-26T12:44:15.375Z,20.23
2022-07-26T12:46:46.627Z,20.06
2022-07-26T12:49:13.944Z,20.08
2022-07-26T12:51:41.412Z,20.36
2022-07-26T12:54:09.498Z,20.26
2022-07-26T12:56:36.750Z,20.24
2022-07-26T12:59:03.825Z,20.39
2022-07-26T13:01:32.933Z,20.25
2022-07-26T13:04:01.167Z,20.04
2022-07-26T13:06:28.560Z,19.80
2022-07-26T13:08:56.616Z,19.50
2022-07-26T13:11:24.070Z,19.51
2022-07-26T13:13:51.160Z,19.36
2022-07-26T13:16:18.212Z,19.28
2022-07-26T13:18:46.443Z,19.20
2022-07-26T13:21:13.462Z,19.46
2022-07-26T13:23:40.504Z,19.52
2022-07-26T13:26:09.222Z,19.54
2022-07-26T13:28:39.980Z,19.64
2022-07-26T13:31:07.310Z,19.57
2022-07-26T13:33:34.503Z,19.61
2022-07-26T13:36:01.566Z,19.75
2022-07-26T13:38:31.381Z,19.83
2022-07-26T13:40:58.374Z,19.75
2022-07-26T13:43:25.726Z,19.99
2022-07-26T13:45:52.701Z,20.01
2022-07-26T13:48:20.386Z,20.05
2022-07-26T13:50:47.418Z,20.11
2022-07-26T13:53:14.852Z,19.99
2022-07-26T13:55:42.430Z,20.27
2022-07-26T13:58:10.378Z,20.54
2022-07-26T14:00:38.361Z,20.55
2022-07-26T14:03:05.481Z,20.61
2022-07-26T14:05:32.992Z,20.37
2022-07-26T14:08:00.062Z,20.42
2022-07-26T14:10:27.217Z,20.13
2022-07-26T14:12:54.452Z,20.29
2022-07-26T14:15:23.313Z,20.29
2022-07-26T14:17:52.783Z,20.53
2022-07-26T14:20:21.719Z,20.58
2022-07-26T14:22:53.959Z,20.66
2022-07-26T14:25:24.167Z,20.55
2022-07-26T14:27:54.382Z,20.46
2022-07-26T14:30:22.594Z,20.43
2022-07-26T14:32:49.976Z,20.34
2022-07-26T14:35:17.927Z,20.25
2022-07-26T14:37:46.239Z,20.40
2022-07-26T14:40:26.021Z,20.15
2022-07-26T14:42:53.096Z,20.07
2022-07-26T14:45:20.169Z,20.02
2022-07-26T14:47:47.286Z,20.21
2022-07-26T14:51:08.277Z,20.43
2022-07-26T15:16:07.647Z,21.08
2022-07-26T15:18:35.988Z,21.08
2022-07-26T15:21:03.309Z,21.05
2022-07-26T15:23:31.136Z,21.60
2022-07-26T15:25:58.240Z,21.81
2022-07-26T15:28:25.301Z,22.38
2022-07-26T15:30:53.013Z,22.44
2022-07-26T15:33:20.747Z,22.03
2022-07-26T15:35:47.851Z,22.60
2022-07-26T15:38:14.940Z,22.23
2022-07-26T15:40:42.162Z,21.61
2022-07-26T15:43:09.219Z,21.62
2022-07-26T15:45:37.484Z,21.53
2022-07-26T15:48:15.851Z,21.54
2022-07-26T15:50:48.057Z,21.29
2022-07-26T15:53:16.747Z,21.22
2022-07-26T15:55:43.826Z,21.08
2022-07-26T15:58:10.912Z,20.89
2022-07-26T16:00:38.021Z,20.72
2022-07-26T16:03:05.140Z,20.70
2022-07-26T16:05:33.201Z,20.74
2022-07-26T16:08:00.699Z,21.09
2022-07-26T16:10:27.767Z,22.54
2022-07-26T16:12:54.762Z,23.43
2022-07-26T16:15:21.847Z,23.34
2022-07-26T16:17:48.821Z,22.97
2022-07-26T16:20:19.406Z,22.45
2022-07-26T16:22:48.250Z,22.04
2022-07-26T16:25:16.184Z,21.82
2022-07-26T16:27:44.199Z,21.78
2022-07-26T16:30:14.717Z,21.69
2022-07-26T16:32:43.689Z,21.28
2022-07-26T16:35:12.423Z,21.08
2022-07-26T16:37:40.169Z,21.00
2022-07-26T16:40:09.416Z,20.99
2022-07-26T16:42:36.595Z,20.89
2022-07-26T16:45:04.719Z,20.96
2022-07-26T16:47:31.745Z,21.40
2022-07-26T16:49:58.808Z,21.61
2022-07-26T16:52:25.814Z,21.37
2022-07-26T16:54:52.833Z,21.22
2022-07-26T16:57:19.897Z,21.04
2022-07-26T16:59:47.708Z,21.02
2022-07-26T17:02:14.868Z,21.00
2022-07-26T17:04:41.960Z,20.90
2022-07-26T17:07:24.415Z,20.89
2022-07-26T17:09:52.460Z,20.91
2022-07-26T17:12:20.175Z,20.82
2022-07-26T17:14:47.206Z,20.69
2022-07-26T17:17:14.221Z,20.65
2022-07-26T17:19:41.260Z,20.52
2022-07-26T17:22:08.295Z,20.54
2022-07-26T17:24:35.289Z,20.41
2022-07-26T17:27:02.313Z,20.40
2022-07-26T17:29:29.393Z,20.56
2022-07-26T17:31:56.538Z,20.74
2022-07-26T17:34:23.953Z,20.82
2022-07-26T17:37:05.691Z,20.82
2022-07-26T17:39:50.760Z,20.92
2022-07-26T17:42:21.012Z,20.93
2022-07-26T17:44:48.179Z,20.86
2022-07-26T17:47:18.005Z,20.71
2022-07-26T17:49:55.824Z,20.56
2022-07-26T17:52:23.985Z,20.60
2022-07-26T17:54:51.033Z,20.45
2022-07-26T17:57:18.028Z,20.36
2022-07-26T17:59:45.132Z,20.32
2022-07-26T18:02:12.265Z,20.33
2022-07-26T18:04:39.337Z,20.31
2022-07-26T18:07:06.356Z,20.24
2022-07-26T18:09:33.461Z,20.33
2022-07-26T18:12:00.646Z,20.29
2022-07-26T18:14:27.711Z,20.19
2022-07-26T18:16:56.989Z,20.12
2022-07-26T18:19:24.814Z,20.08
2022-07-26T18:21:51.795Z,19.88
2022-07-26T18:24:18.877Z,19.81
2022-07-26T18:26:45.957Z,19.65
2022-07-26T18:29:15.211Z,19.60
2022-07-26T18:31:42.970Z,19.56
2022-07-26T18:34:10.007Z,19.49
2022-07-26T18:36:37.079Z,19.44
2022-07-26T18:39:05.220Z,19.38
2022-07-26T18:41:34.273Z,19.28
2022-07-26T18:44:04.108Z,19.23
2022-07-26T18:46:31.293Z,19.13
2022-07-26T18:49:01.197Z,19.09
2022-07-26T18:51:29.759Z,19.04
2022-07-26T18:53:58.918Z,18.91
2022-07-26T18:56:25.919Z,18.82
2022-07-26T18:58:53.197Z,18.72
2022-07-26T19:01:20.264Z,18.61
2022-07-26T19:03:47.384Z,18.49
2022-07-26T19:06:14.660Z,18.41
2022-07-26T19:08:41.697Z,18.28
2022-07-26T19:11:08.923Z,18.19
2022-07-26T19:13:36.035Z,18.08
2022-07-26T19:16:03.095Z,17.98
2022-07-26T19:18:30.298Z,17.87
2022-07-26T19:20:57.448Z,17.83
2022-07-26T19:23:24.550Z,17.78
2022-07-26T19:25:51.941Z,17.76
2022-07-26T19:28:19.057Z,17.71
2022-07-26T19:30:46.324Z,17.64
2022-07-26T19:33:14.375Z,17.57
2022-07-26T19:35:41.456Z,17.53
2022-07-26T19:38:08.599Z,17.46
2022-07-26T19:40:35.782Z,17.40
2022-07-26T19:43:02.938Z,17.41
2022-07-26T19:45:30.003Z,17.39
2022-07-26T19:47:57.212Z,17.35
2022-07-26T19:50:24.463Z,17.26
2022-07-26T19:52:51.524Z,17.21
2022-07-26T19:55:18.821Z,17.16
2022-07-26T19:57:46.033Z,17.09
2022-07-26T20:00:13.982Z,17.00
2022-07-26T20:02:41.985Z,16.93
2022-07-26T20:05:13.371Z,16.88
2022-07-26T20:07:40.855Z,16.79
2022-07-26T20:10:09.643Z,16.72
2022-07-26T20:12:38.899Z,16.65
2022-07-26T20:15:09.823Z,16.60
2022-07-26T20:17:39.325Z,16.51
2022-07-26T20:20:10.162Z,16.46
2022-07-26T20:22:37.430Z,16.42
2022-07-26T20:25:06.071Z,16.33
2022-07-26T20:27:33.296Z,16.34
2022-07-26T20:30:01.269Z,16.21
2022-07-26T20:32:28.534Z,16.16
2022-07-26T20:34:55.769Z,16.02
2022-07-26T20:37:23.180Z,15.94
2022-07-26T20:39:50.465Z,15.97
2022-07-26T20:42:21.620Z,15.98
2022-07-26T20:44:49.474Z,15.99
2022-07-26T20:47:16.512Z,16.01
2022-07-26T20:49:43.568Z,16.05
2022-07-26T20:52:11.428Z,16.15
2022-07-26T20:54:38.594Z,16.15
2022-07-26T20:57:05.734Z,16.19
2022-07-26T20:59:35.027Z,16.18
2022-07-26T21:02:02.289Z,16.20
2022-07-26T21:04:30.081Z,16.15
2022-07-26T21:06:57.123Z,16.15
2022-07-26T21:09:27.861Z,16.14
2022-07-26T21:11:55.221Z,16.16
2022-07-26T21:14:22.306Z,16.07
2022-07-26T21:16:49.418Z,15.98
2022-07-26T21:19:16.683Z,15.91
2022-07-26T21:21:44.220Z,15.90
2022-07-26T21:24:12.350Z,15.91
2022-07-26T21:26:39.563Z,15.92
2022-07-26T21:29:06.731Z,15.97
2022-07-26T21:31:34.175Z,16.00
2022-07-26T21:34:01.400Z,16.00
2022-07-26T21:36:28.637Z,16.05
2022-07-26T21:38:55.808Z,15.99
2022-07-26T21:41:22.852Z,15.98
2022-07-26T21:43:49.878Z,15.99
2022-07-26T21:46:17.042Z,15.96
2022-07-26T21:48:44.205Z,15.99
2022-07-26T21:51:11.501Z,16.09
2022-07-26T21:53:38.586Z,16.02
2022-07-26T21:56:06.008Z,16.08
2022-07-26T21:58:36.610Z,16.03
2022-07-26T22:01:08.592Z,16.07
2022-07-26T22:03:38.923Z,16.08
2022-07-26T22:06:08.785Z,16.14
2022-07-26T22:08:39.225Z,16.32
2022-07-26T22:11:06.473Z,16.28
2022-07-26T22:13:33.473Z,16.20
2022-07-26T22:16:00.633Z,16.28
2022-07-26T22:18:28.125Z,16.32
2022-07-26T22:20:55.937Z,16.30
2022-07-26T22:23:23.464Z,16.22
2022-07-26T22:25:50.495Z,16.29
2022-07-26T22:28:17.966Z,16.27
2022-07-26T22:30:46.460Z,16.26
2022-07-26T22:33:13.638Z,16.20
2022-07-26T22:35:40.861Z,16.26
2022-07-26T22:38:11.944Z,16.20
2022-07-26T22:40:42.357Z,16.22
2022-07-26T22:43:11.531Z,16.27
2022-07-26T22:45:39.837Z,16.27
2022-07-26T22:48:09.388Z,16.17
2022-07-26T22:50:36.797Z,16.13
2022-07-26T22:53:04.345Z,16.16
2022-07-26T22:55:32.060Z,16.15
2022-07-26T22:57:59.708Z,16.16
2022-07-26T23:00:27.167Z,16.08
2022-07-26T23:02:54.480Z,16.05
2022-07-26T23:05:21.880Z,15.99
2022-07-26T23:07:59.190Z,16.04
2022-07-26T23:10:30.596Z,16.00
2022-07-26T23:12:58.010Z,15.99
2022-07-26T23:15:25.254Z,16.00
2022-07-26T23:17:52.390Z,15.97
2022-07-26T23:20:19.453Z,15.91
2022-07-26T23:22:46.461Z,15.90
2022-07-26T23:25:13.526Z,16.01
2022-07-26T23:27:40.648Z,15.90
2022-07-26T23:30:08.597Z,15.87
2022-07-26T23:32:35.582Z,15.78
2022-07-26T23:35:02.622Z,15.81
2022-07-26T23:37:29.676Z,15.70
2022-07-26T23:39:56.670Z,15.67
2022-07-26T23:42:24.270Z,15.66
2022-07-26T23:44:51.365Z,15.58
2022-07-26T23:47:18.427Z,15.52
2022-07-26T23:49:45.450Z,15.50
2022-07-26T23:52:12.568Z,15.45
2022-07-26T23:54:39.637Z,15.47
2022-07-26T23:57:07.012Z,15.46
2022-07-26T23:59:34.128Z,15.35
